Terminal Aerodrome Forecast
Issued by NWS

Home | Current Version | Previous Version | Text Only | Print | Product List | Glossary On
Versions: 1 2 3 4 5 6 7 8 9 10 11 12 13 14 15
533
FTUS44 KMAF 151731
TAFHOB
TAF
KHOB 151731Z 1518/1618 23010KT P6SM SKC
     FM161500 18008KT P6SM FEW100 SCT250=

USA.gov is the U.S. government's official web portal to all federal, state and local government web resources and services.